Orbital elements of FENGYUN 1C DEB
| Launched | 9 May 1999 |
| Flight ended | – |
| Launch site | Taiyuan Space Center, PRC |
| Owner | People's Republic of China |
| NORAD ID | 31024 |
| Date fetched |
Epoch osculation |
Inc. [°] |
Ecc. | RA asc node [hr] |
Arg Peri. [°] |
Mean anom [°] |
Mean motion [rev/day] |
Abs. mag |
| Date fetched |
Epoch osculation |
Inc. [°] |
Ecc. | RA asc node [hr] |
Arg Peri. [°] |
Mean anom [°] |
Mean motion [rev/day] |
Abs. mag |
| 2026 May 09 17:57 | 2026 May 02 05:37:46 | 99.0435 | 0.00755 | 2.9234 | 83.6316 | 277.3455 | 14.21068 | – |
| 2026 May 08 17:57 | 2026 May 02 05:37:46 | 99.0435 | 0.00755 | 2.9234 | 83.6316 | 277.3455 | 14.21068 | – |
| 2026 May 07 17:58 | 2026 May 02 05:37:46 | 99.0435 | 0.00755 | 2.9234 | 83.6316 | 277.3455 | 14.21068 | – |
| 2026 May 06 17:57 | 2026 May 02 05:37:46 | 99.0435 | 0.00755 | 2.9234 | 83.6316 | 277.3455 | 14.21068 | – |
| 2026 May 05 17:57 | 2026 May 02 05:37:46 | 99.0435 | 0.00755 | 2.9234 | 83.6316 | 277.3455 | 14.21068 | – |
| 2026 May 04 17:57 | 2026 Apr 28 13:45:32 | 99.0435 | 0.00755 | 2.6735 | 93.9383 | 277.3455 | 14.21068 | – |
| 2026 May 03 17:57 | 2026 Apr 28 13:45:32 | 99.0435 | 0.00755 | 2.6735 | 93.9383 | 277.3455 | 14.21068 | – |
| 2026 May 02 17:57 | 2026 Apr 28 13:45:32 | 99.0435 | 0.00755 | 2.6735 | 93.9383 | 277.3455 | 14.21068 | – |
| 2026 May 01 17:56 | 2026 Apr 28 13:45:32 | 99.0435 | 0.00755 | 2.6735 | 93.9383 | 277.3455 | 14.21068 | – |
| 2026 Apr 30 17:56 | 2026 Apr 28 13:45:32 | 99.0435 | 0.00755 | 2.6735 | 93.9383 | 277.3455 | 14.21068 | – |
| 2026 Apr 29 17:57 | 2026 Apr 23 05:19:56 | 99.0433 | 0.00753 | 2.3084 | 109.0320 | 277.3455 | 14.21068 | – |
| 2026 Apr 28 17:56 | 2026 Apr 23 05:19:56 | 99.0433 | 0.00753 | 2.3084 | 109.0320 | 277.3455 | 14.21068 | – |
| 2026 Apr 27 17:58 | 2026 Apr 23 05:19:56 | 99.0433 | 0.00753 | 2.3084 | 109.0320 | 277.3455 | 14.21068 | – |
| 2026 Apr 26 17:58 | 2026 Apr 23 05:19:56 | 99.0433 | 0.00753 | 2.3084 | 109.0320 | 277.3455 | 14.21068 | – |
| 2026 Apr 25 17:58 | 2026 Apr 23 05:19:56 | 99.0433 | 0.00753 | 2.3084 | 109.0320 | 277.3455 | 14.21068 | – |
| 2026 Apr 24 17:59 | 2026 Apr 23 05:19:56 | 99.0433 | 0.00753 | 2.3084 | 109.0320 | 277.3455 | 14.21068 | – |
| 2026 Apr 23 17:57 | 2026 Apr 18 12:06:48 | 99.0431 | 0.00751 | 1.9866 | 122.3533 | 277.3455 | 14.21068 | – |
| 2026 Apr 22 17:57 | 2026 Apr 18 12:06:48 | 99.0431 | 0.00751 | 1.9866 | 122.3533 | 277.3455 | 14.21068 | – |
| 2026 Apr 21 17:57 | 2026 Apr 18 12:06:48 | 99.0431 | 0.00751 | 1.9866 | 122.3533 | 277.3455 | 14.21068 | – |
| 2026 Apr 20 17:57 | 2026 Apr 18 12:06:48 | 99.0431 | 0.00751 | 1.9866 | 122.3533 | 277.3455 | 14.21068 | – |
| 2026 Apr 19 17:58 | 2026 Apr 18 12:06:48 | 99.0431 | 0.00751 | 1.9866 | 122.3533 | 277.3455 | 14.21068 | – |
| 2026 Apr 18 17:56 | 2026 Apr 12 12:28:36 | 99.0431 | 0.00749 | 1.5783 | 139.3242 | 277.3455 | 14.21068 | – |
| 2026 Apr 16 17:57 | 2026 Apr 12 12:28:36 | 99.0431 | 0.00749 | 1.5783 | 139.3242 | 277.3455 | 14.21068 | – |
| 2026 Apr 14 17:57 | 2026 Apr 12 12:28:36 | 99.0431 | 0.00749 | 1.5783 | 139.3242 | 277.3455 | 14.21068 | – |
| 2026 Apr 13 17:57 | 2026 Apr 12 12:28:36 | 99.0431 | 0.00749 | 1.5783 | 139.3242 | 277.3455 | 14.21068 | – |
| 2026 Apr 12 17:57 | 2026 Apr 07 05:44:16 | 99.0432 | 0.00746 | 1.2180 | 154.3687 | 277.3455 | 14.21068 | – |